logo
Search for airport 
image banner adimage banner adimage banner ad
image banner ad

WMAZ - Segamat

Located in Segamat District, Malaysia

ICAO - WMAZ, IATA -

Data provided by Airmate  

General information

Coordinates: N2°30'0" E102°49'54"
Elevation is 50 feet MSL.
Magnetic variation is 0° East
View others Airports in Johor

Operational data

Special qualification required
Current time UTC:
Current local time:
Weather at : WMKM - Malacca ( 69 km )
METAR: WMKM 171300Z VRB02KT 9999 FEW028 27/24 Q1011
TAF: TAF WMKM 171100Z 1712/1812 25005KT 9999 FEW026 PROB30 TEMPO 1722/1802 5000 TSRA FEW017CB
View NOTAMs / SUP AIP / TFR affecting this airport [VIEW]
Communications frequencies: [VIEW]

Runways:

RWY identifierQFULength (ft)Width (ft)SurfaceLDA (ft)
0995°160199GRAV
27275°160199GRAV

Airport contact information

Address: Segamat District Malaysia

Satellite view of WMAZ